Time;durP1;ratioP1;P1;durP2;ratioP2;P2;SDS_P1;SDS_P2;PMS_P1;PMS_P2;Temp;Humidity;BMP_temperature;BMP_pressure;BME280_temperature;BME280_humidity;BME280_pressure;Samples;Min_cycle;Max_cycle;Signal;HPM_P1;HPM_P2
2022/07/09 00:00:34;;;;;;;12.63;6.15;;;;;;;19.71;71.60;99569.06;5082809;28;20124;-61
2022/07/09 00:03:00;;;;;;;11.18;6.38;;;;;;;19.69;71.58;99571.81;5101027;28;20044;-63
2022/07/09 00:05:26;;;;;;;16.05;6.43;;;;;;;19.64;71.88;99562.56;5093037;28;20031;-59
2022/07/09 00:07:52;;;;;;;15.00;6.75;;;;;;;19.63;71.92;99568.78;5097907;28;20035;-63
2022/07/09 00:10:17;;;;;;;13.55;6.50;;;;;;;19.53;72.00;99552.78;5102551;28;20040;-62
2022/07/09 00:12:43;;;;;;;12.60;7.05;;;;;;;19.58;72.42;99558.56;5101773;28;20039;-62
2022/07/09 00:15:09;;;;;;;20.33;7.30;;;;;;;19.56;72.58;99563.13;5091340;28;20128;-63
2022/07/09 00:17:35;;;;;;;17.42;7.18;;;;;;;19.53;72.78;99570.41;5113896;28;20054;-62
2022/07/09 00:20:04;;;;;;;22.35;7.57;;;;;;;19.52;72.76;99566.13;5104791;28;20035;-63
2022/07/09 00:22:31;;;;;;;;;;;;;;;19.48;73.07;99562.84;5075722;28;20156;-63
2022/07/09 00:24:58;;;;;;;20.98;6.93;;;;;;;19.44;72.90;99559.59;5091315;28;20399;-62
2022/07/09 00:27:23;;;;;;;21.27;8.32;;;;;;;19.42;73.46;99560.59;5092750;28;20051;-63
2022/07/09 00:29:49;;;;;;;24.33;10.10;;;;;;;19.40;73.80;99562.53;5074996;28;20044;-59
2022/07/09 00:32:16;;;;;;;23.80;8.27;;;;;;;19.37;74.17;99560.09;5074505;28;20039;-63
2022/07/09 00:34:41;;;;;;;29.88;12.88;;;;;;;19.34;74.43;99558.53;5074628;28;20036;-63
2022/07/09 00:37:07;;;;;;;28.95;12.95;;;;;;;19.32;74.63;99559.59;5092922;28;20077;-63
2022/07/09 00:39:33;;;;;;;31.02;10.50;;;;;;;19.25;74.93;99550.47;5092607;28;20134;-62
2022/07/09 00:42:03;;;;;;;24.38;9.32;;;;;;;19.20;75.26;99549.94;5092158;28;20089;-62
2022/07/09 00:44:29;;;;;;;25.95;10.00;;;;;;;19.24;75.60;99564.59;5070761;28;20040;-62
2022/07/09 00:46:54;;;;;;;28.65;9.52;;;;;;;19.05;75.80;99529.00;5091928;28;20051;-62
2022/07/09 00:49:20;;;;;;;25.88;8.88;;;;;;;19.18;76.01;99563.22;5092584;28;20046;-62
2022/07/09 00:51:46;;;;;;;41.15;20.10;;;;;;;19.18;76.42;99562.38;5074139;28;20058;-63
2022/07/09 00:54:13;;;;;;;26.08;10.23;;;;;;;19.16;76.51;99562.50;5073690;28;20047;-63
2022/07/09 00:56:39;;;;;;;21.40;9.90;;;;;;;19.16;76.97;99569.53;5092313;28;20040;-63
2022/07/09 00:59:09;;;;;;;25.40;10.65;;;;;;;19.09;77.26;99555.16;5092130;28;20036;-62
2022/07/09 01:01:36;;;;;;;25.42;9.57;;;;;;;19.13;77.40;99570.63;5091469;28;20453;-63
2022/07/09 01:04:02;;;;;;;27.70;9.50;;;;;;;19.10;77.67;99570.84;5091975;28;20116;-62
2022/07/09 01:06:28;;;;;;;30.33;11.98;;;;;;;19.05;77.80;99559.81;5091928;28;20040;-62
2022/07/09 01:08:54;;;;;;;27.90;9.95;;;;;;;19.08;78.19;99571.91;5092172;28;20051;-63
2022/07/09 01:11:20;;;;;;;28.70;10.18;;;;;;;19.08;78.06;99569.28;5041889;28;20089;-64
2022/07/09 01:13:46;;;;;;;29.30;10.55;;;;;;;19.08;78.37;99570.09;5092080;28;20114;-61
2022/07/09 01:16:15;;;;;;;35.22;10.80;;;;;;;19.07;78.81;99567.56;5071798;28;20036;-64
2022/07/09 01:18:45;;;;;;;22.92;9.48;;;;;;;19.07;78.85;99568.41;5090354;28;20052;-63
2022/07/09 01:21:12;;;;;;;31.45;9.68;;;;;;;19.07;78.93;99568.41;5091563;28;20460;-62
2022/07/09 01:23:38;;;;;;;22.67;9.98;;;;;;;19.07;79.38;99568.41;5092011;28;20081;-63
2022/07/09 01:26:04;;;;;;;25.30;9.50;;;;;;;19.07;79.48;99568.41;5073643;28;20447;-61
2022/07/09 01:28:30;;;;;;;24.13;9.82;;;;;;;18.99;79.50;99555.81;5091260;28;20044;-63
2022/07/09 01:30:56;;;;;;;28.75;10.18;;;;;;;19.08;79.72;99558.72;5091849;28;20177;-62
2022/07/09 01:33:22;;;;;;;23.67;10.77;;;;;;;19.03;79.59;99559.91;5091637;28;20046;-63
2022/07/09 01:35:47;;;;;;;28.30;10.25;;;;;;;19.05;79.82;99570.34;5091517;28;20823;-63
2022/07/09 01:38:13;;;;;;;24.80;10.88;;;;;;;19.05;79.90;99562.44;5073159;28;20048;-64
2022/07/09 01:40:39;;;;;;;26.17;10.43;;;;;;;19.09;79.75;99568.31;5073427;28;20046;-63
2022/07/09 01:43:05;;;;;;;23.60;9.48;;;;;;;19.08;80.06;99575.38;5091666;28;20138;-62
2022/07/09 01:45:31;;;;;;;23.02;10.00;;;;;;;19.08;80.24;99572.75;5073291;28;20036;-64
2022/07/09 01:47:56;;;;;;;16.52;8.98;;;;;;;19.11;80.37;99576.94;5091028;28;20046;-62
2022/07/09 01:50:22;;;;;;;28.25;9.02;;;;;;;19.14;80.58;99560.94;5091629;28;20392;-63
2022/07/09 01:52:50;;;;;;;21.05;9.98;;;;;;;19.16;80.65;99565.13;5091150;28;20035;-63
2022/07/09 01:55:15;;;;;;;20.77;8.77;;;;;;;19.18;80.69;99563.22;5090556;28;20039;-63
2022/07/09 01:57:41;;;;;;;16.90;8.57;;;;;;;19.20;80.77;99563.97;5091089;28;20507;-62
2022/07/09 02:00:07;;;;;;;15.75;9.30;;;;;;;19.21;80.85;99562.19;5090626;28;20040;-63
2022/07/09 02:02:39;;;;;;;22.13;9.70;;;;;;;19.23;80.82;99562.91;5091042;28;20419;-63
2022/07/09 02:05:06;;;;;;;19.40;9.57;;;;;;;19.23;80.96;99555.84;5072545;28;20036;-63
2022/07/09 02:07:32;;;;;;;19.77;9.65;;;;;;;19.25;81.15;99559.22;5071375;28;20046;-63
2022/07/09 02:09:58;;;;;;;16.45;8.48;;;;;;;19.26;81.28;99558.25;5090697;28;20036;-63
2022/07/09 02:12:24;;;;;;;14.18;9.10;;;;;;;19.25;81.34;99561.84;5090892;28;20499;-63
2022/07/09 02:14:50;;;;;;;16.70;8.75;;;;;;;19.28;81.51;99569.53;5090310;28;20082;-63
2022/07/09 02:17:15;;;;;;;14.88;8.75;;;;;;;19.29;81.59;99568.56;5090803;28;20068;-62
2022/07/09 02:19:41;;;;;;;15.43;9.00;;;;;;;19.32;81.60;99570.13;5072269;28;20539;-63
2022/07/09 02:22:07;;;;;;;18.20;9.20;;;;;;;19.32;81.46;99576.25;5072678;28;20062;-64
2022/07/09 02:24:33;;;;;;;18.20;9.65;;;;;;;19.35;81.63;99562.88;5090586;28;20036;-63
2022/07/09 02:26:59;;;;;;;16.67;9.30;;;;;;;19.37;81.59;99565.38;5089709;28;20075;-63
2022/07/09 02:29:24;;;;;;;17.50;9.13;;;;;;;19.39;81.65;99571.38;5090879;28;20040;-62
2022/07/09 02:31:50;;;;;;;19.08;9.50;;;;;;;19.40;81.46;99578.34;5090855;28;20061;-63
2022/07/09 02:34:16;;;;;;;19.23;9.52;;;;;;;19.41;81.52;99580.88;5090268;28;20482;-63
2022/07/09 02:36:42;;;;;;;15.40;10.68;;;;;;;19.43;81.55;99584.25;5088928;28;20537;-63
2022/07/09 02:39:07;;;;;;;22.10;9.98;;;;;;;19.46;81.80;99583.22;5088687;28;20047;-63
2022/07/09 02:41:34;;;;;;;19.83;9.50;;;;;;;19.47;81.56;99576.97;5090287;28;20039;-63
2022/07/09 02:44:00;;;;;;;17.45;9.27;;;;;;;19.43;81.77;99567.56;5090365;28;20487;-63
2022/07/09 02:46:25;;;;;;;24.63;10.40;;;;;;;19.42;81.63;99572.00;5072331;28;20040;-63
2022/07/09 02:48:51;;;;;;;13.98;9.15;;;;;;;19.53;81.70;99583.59;5090113;28;20036;-63
2022/07/09 02:51:17;;;;;;;15.18;9.15;;;;;;;19.54;81.71;99587.91;5090391;28;20071;-62
2022/07/09 02:53:43;;;;;;;18.95;9.73;;;;;;;19.51;81.50;99577.59;5089319;28;20533;-60
2022/07/09 02:56:09;;;;;;;19.90;9.07;;;;;;;19.58;81.40;99594.66;5089633;28;20039;-62
2022/07/09 02:58:34;;;;;;;18.40;9.73;;;;;;;19.60;81.48;99592.75;5090211;28;20092;-63
2022/07/09 03:01:00;;;;;;;22.67;9.93;;;;;;;19.62;81.61;99596.97;5090179;28;20168;-60
2022/07/09 03:03:26;;;;;;;16.73;9.35;;;;;;;19.65;81.58;99590.63;5089819;28;20059;-61
2022/07/09 03:05:52;;;;;;;21.58;10.75;;;;;;;19.68;81.07;99596.50;5089968;28;20032;-62
2022/07/09 03:08:21;;;;;;;20.77;10.25;;;;;;;19.58;79.85;99561.22;5090505;28;20043;-62
2022/07/09 03:10:49;;;;;;;17.40;10.35;;;;;;;19.80;78.95;99590.34;5090067;28;20043;-63
2022/07/09 03:13:15;;;;;;;16.10;10.07;;;;;;;19.81;78.64;99578.84;5070874;28;20051;-64
2022/07/09 03:15:41;;;;;;;15.18;10.20;;;;;;;19.87;77.87;99588.94;5071227;28;20036;-63
2022/07/09 03:18:08;;;;;;;13.73;9.13;;;;;;;19.93;77.49;99585.00;5089844;28;20044;-63
2022/07/09 03:20:37;;;;;;;18.25;10.75;;;;;;;19.86;76.56;99578.50;5055315;28;20046;-62
2022/07/09 03:23:03;;;;;;;;;;;;;;;19.99;76.32;99597.75;5090292;28;20138;-61
2022/07/09 03:25:29;;;;;;;17.13;9.73;;;;;;;20.05;75.83;99588.50;5089460;28;19916;-63
2022/07/09 03:27:57;;;;;;;17.38;10.38;;;;;;;20.10;75.21;99575.81;5089288;28;20115;-63
2022/07/09 03:30:26;;;;;;;15.68;10.23;;;;;;;20.16;74.42;99580.63;5089866;28;20047;-63
2022/07/09 03:32:51;;;;;;;17.45;11.38;;;;;;;20.23;73.79;99571.31;5090179;28;20050;-63
2022/07/09 03:35:17;;;;;;;18.55;10.93;;;;;;;20.28;73.04;99572.63;5089690;28;20423;-63
2022/07/09 03:37:43;;;;;;;18.20;10.93;;;;;;;20.25;72.28;99558.84;5085620;28;20079;-62
2022/07/09 03:40:09;;;;;;;18.90;10.10;;;;;;;20.41;71.82;99569.09;5089959;28;20074;-64
2022/07/09 03:42:36;;;;;;;17.10;10.18;;;;;;;20.47;71.76;99584.44;5071432;28;20044;-63
2022/07/09 03:45:02;;;;;;;17.80;9.80;;;;;;;20.46;71.69;99573.06;5089558;28;20097;-63
2022/07/09 03:47:29;;;;;;;17.55;11.68;;;;;;;20.46;71.34;99559.88;5089314;28;20062;-63
2022/07/09 03:49:55;;;;;;;19.20;10.75;;;;;;;20.63;70.72;99577.03;5070134;28;20408;-64
2022/07/09 03:52:21;;;;;;;18.27;11.00;;;;;;;20.73;70.35;99566.63;5089857;28;20089;-62
2022/07/09 03:54:46;;;;;;;15.10;10.23;;;;;;;20.81;70.13;99564.19;5089432;28;20500;-63
2022/07/09 03:57:12;;;;;;;17.50;11.50;;;;;;;20.91;69.54;99571.28;5089227;28;20051;-63
2022/07/09 03:59:38;;;;;;;19.55;11.52;;;;;;;21.01;68.57;99552.91;5089735;28;20040;-63
2022/07/09 04:02:05;;;;;;;19.92;11.82;;;;;;;21.27;67.87;99556.13;5089772;28;20495;-62
2022/07/09 04:04:31;;;;;;;15.73;10.57;;;;;;;21.44;66.94;99545.03;5089095;28;20039;-63
2022/07/09 04:06:57;;;;;;;18.83;10.32;;;;;;;21.64;66.03;99554.84;5089225;28;20518;-62
2022/07/09 04:09:22;;;;;;;17.33;10.43;;;;;;;21.73;65.50;99551.41;5089306;28;20044;-61
2022/07/09 04:11:48;;;;;;;15.98;9.77;;;;;;;21.67;64.84;99525.47;5089641;28;20113;-62
2022/07/09 04:14:14;;;;;;;13.25;9.35;;;;;;;21.75;64.54;99544.22;5089322;28;20090;-63
2022/07/09 04:16:40;;;;;;;15.63;8.70;;;;;;;21.76;64.52;99547.69;5089236;28;20040;-63
2022/07/09 04:19:07;;;;;;;13.98;8.70;;;;;;;21.76;64.60;99559.13;5089394;28;20114;-62
2022/07/09 04:21:33;;;;;;;15.50;9.38;;;;;;;21.73;63.99;99571.75;5089502;28;20052;-63
2022/07/09 04:23:58;;;;;;;15.07;9.25;;;;;;;21.68;63.75;99580.06;5073552;28;20068;-64
2022/07/09 04:26:24;;;;;;;15.55;9.48;;;;;;;21.54;63.13;99560.03;5092791;28;20576;-63
2022/07/09 04:28:50;;;;;;;13.82;8.90;;;;;;;21.59;63.59;99572.91;5093255;28;20071;-61
2022/07/09 04:31:19;;;;;;;17.17;8.18;;;;;;;21.59;63.92;99566.75;5093146;28;20047;-63
2022/07/09 04:33:45;;;;;;;14.07;8.75;;;;;;;21.64;63.94;99575.16;5074647;28;20063;-61
2022/07/09 04:36:11;;;;;;;15.82;8.10;;;;;;;21.61;64.19;99564.84;5074116;28;20078;-62
2022/07/09 04:38:37;;;;;;;19.10;8.38;;;;;;;21.72;64.63;99564.81;5092494;28;20142;-62
2022/07/09 04:41:03;;;;;;;17.65;8.77;;;;;;;21.79;64.65;99565.97;5092666;28;20044;-62
2022/07/09 04:43:29;;;;;;;16.23;8.93;;;;;;;21.85;63.88;99571.59;5092639;28;20040;-62
2022/07/09 04:45:55;;;;;;;10.95;7.80;;;;;;;21.92;63.25;99570.13;5092032;28;20503;-63
2022/07/09 04:48:22;;;;;;;16.40;7.07;;;;;;;22.02;62.89;99569.41;5092448;28;20071;-61
2022/07/09 04:50:48;;;;;;;15.27;7.93;;;;;;;22.07;62.25;99570.69;5074570;28;20540;-61
2022/07/09 04:53:13;;;;;;;14.93;7.57;;;;;;;22.07;61.49;99556.59;5092699;28;20043;-63
2022/07/09 04:55:39;;;;;;;11.52;6.85;;;;;;;22.20;62.04;99560.72;5091440;28;20055;-62
2022/07/09 04:58:05;;;;;;;11.20;6.38;;;;;;;22.25;61.47;99566.47;5092855;28;20041;-63
2022/07/09 05:00:33;;;;;;;9.02;5.78;;;;;;;22.22;59.61;99565.91;5092544;28;20044;-62
2022/07/09 05:02:59;;;;;;;9.30;5.38;;;;;;;22.20;59.20;99560.72;5073918;28;20040;-60
2022/07/09 05:05:25;;;;;;;9.27;5.38;;;;;;;22.30;58.83;99558.97;5092176;28;20040;-61
2022/07/09 05:07:52;;;;;;;8.60;5.30;;;;;;;22.42;58.41;99556.25;5091546;28;20032;-63
2022/07/09 05:10:18;;;;;;;6.65;4.43;;;;;;;22.53;58.37;99551.75;5072325;28;20075;-63
2022/07/09 05:12:43;;;;;;;4.72;3.67;;;;;;;22.65;57.51;99547.19;5091840;28;20039;-65
2022/07/09 05:15:10;;;;;;;8.63;4.80;;;;;;;22.74;57.71;99547.28;5091608;28;20498;-64
2022/07/09 05:17:37;;;;;;;7.07;3.90;;;;;;;22.85;57.58;99556.09;5091777;28;20032;-61
2022/07/09 05:20:06;;;;;;;8.00;4.25;;;;;;;22.96;57.10;99558.66;5092179;28;20043;-63
2022/07/09 05:22:33;;;;;;;7.90;3.88;;;;;;;23.06;57.09;99548.91;5091972;28;20063;-61
2022/07/09 05:24:59;;;;;;;6.35;4.05;;;;;;;23.15;55.70;99540.16;5090839;28;20042;-62
2022/07/09 05:27:26;;;;;;;6.18;3.72;;;;;;;23.24;54.85;99545.47;5092010;28;20093;-63
2022/07/09 05:29:52;;;;;;;5.80;3.60;;;;;;;23.30;53.91;99548.56;5091469;28;20040;-61
2022/07/09 05:32:18;;;;;;;7.43;3.85;;;;;;;23.28;54.21;99547.88;5091392;28;20063;-63
2022/07/09 05:34:44;;;;;;;5.57;3.72;;;;;;;23.18;53.43;99526.63;5089825;28;20047;-62
2022/07/09 05:37:13;;;;;;;7.43;4.25;;;;;;;23.45;53.10;99549.84;5091799;28;20064;-62
2022/07/09 05:39:38;;;;;;;7.22;3.72;;;;;;;23.59;53.14;99541.53;5102865;28;20048;-62
2022/07/09 05:42:04;;;;;;;4.60;3.63;;;;;;;23.74;52.80;99542.78;5091645;28;20086;-63
2022/07/09 05:44:31;;;;;;;5.65;4.00;;;;;;;23.87;52.59;99531.84;5098277;28;20427;-64
2022/07/09 05:46:57;;;;;;;6.30;3.97;;;;;;;24.13;52.21;99548.91;5073443;28;20064;-63
2022/07/09 05:49:23;;;;;;;5.88;3.45;;;;;;;24.34;51.77;99544.28;5076082;28;20074;-64
2022/07/09 05:51:48;;;;;;;5.90;3.90;;;;;;;24.39;50.60;99544.69;5093553;28;20047;-63
2022/07/09 05:54:14;;;;;;;6.10;3.67;;;;;;;24.42;50.62;99538.25;5107833;28;20517;-63
2022/07/09 05:56:41;;;;;;;7.75;3.53;;;;;;;24.61;50.82;99553.28;5089471;28;20495;-64
2022/07/09 05:59:08;;;;;;;3.13;2.40;;;;;;;24.67;49.17;99542.94;5083582;28;20046;-62
2022/07/09 06:01:39;;;;;;;2.53;1.92;;;;;;;24.72;48.47;99550.47;5070987;28;20040;-62
2022/07/09 06:04:07;;;;;;;5.53;2.50;;;;;;;24.68;48.03;99538.44;5088099;28;20035;-63
2022/07/09 06:06:33;;;;;;;6.30;2.75;;;;;;;24.84;48.21;99533.34;5088658;28;20044;-64
2022/07/09 06:08:59;;;;;;;3.00;2.20;;;;;;;25.10;47.20;99531.72;5089612;28;20040;-64
2022/07/09 06:11:26;;;;;;;6.68;2.45;;;;;;;25.31;48.02;99534.94;5089458;28;20507;-64
2022/07/09 06:13:52;;;;;;;6.55;2.35;;;;;;;25.48;47.51;99530.63;5070609;28;20040;-64
2022/07/09 06:16:18;;;;;;;6.07;2.40;;;;;;;25.65;47.83;99528.97;5088337;28;20035;-64
2022/07/09 06:18:43;;;;;;;6.57;2.40;;;;;;;25.80;47.24;99529.28;5089147;28;20044;-63
2022/07/09 06:21:10;;;;;;;4.50;3.08;;;;;;;25.87;46.67;99517.84;5086486;28;20044;-63
2022/07/09 06:23:35;;;;;;;4.68;2.63;;;;;;;26.10;46.02;99516.38;5088937;28;20595;-64
2022/07/09 06:26:01;;;;;;;4.20;2.30;;;;;;;26.34;45.62;99525.56;5093808;28;20119;-64
2022/07/09 06:28:27;;;;;;;4.47;2.88;;;;;;;26.52;44.43;99505.00;5088898;28;20070;-63
2022/07/09 06:30:52;;;;;;;5.00;2.38;;;;;;;26.80;44.55;99525.16;5086644;28;20078;-63
2022/07/09 06:33:19;;;;;;;2.88;2.10;;;;;;;26.94;44.38;99505.91;5087522;28;20043;-65
2022/07/09 06:35:45;;;;;;;7.30;3.47;;;;;;;27.17;43.84;99519.47;5084914;28;20047;-66
2022/07/09 06:38:11;;;;;;;2.65;2.25;;;;;;;27.20;43.79;99511.16;5082246;28;20043;-63
2022/07/09 06:40:36;;;;;;;4.55;2.30;;;;;;;27.19;43.12;99522.84;5089414;28;20044;-64
2022/07/09 06:43:03;;;;;;;2.92;2.30;;;;;;;27.22;42.95;99519.81;5089129;28;20052;-60
2022/07/09 06:45:36;;;;;;;6.68;2.30;;;;;;;27.21;42.95;99514.66;5070047;28;20050;-62
2022/07/09 06:48:02;;;;;;;5.65;2.38;;;;;;;27.51;42.23;99510.59;5087777;28;20063;-63
2022/07/09 06:50:27;;;;;;;2.85;2.55;;;;;;;27.77;42.21;99508.59;5064976;28;20123;-65
2022/07/09 06:52:53;;;;;;;4.47;2.20;;;;;;;27.98;42.55;99522.31;5089417;28;20050;-63
2022/07/09 06:55:19;;;;;;;2.92;2.20;;;;;;;28.37;41.70;99521.63;5088466;28;20061;-62
2022/07/09 06:57:44;;;;;;;4.03;2.40;;;;;;;29.78;38.63;99526.88;5087290;28;20044;-60
2022/07/09 07:00:10;;;;;;;3.42;2.47;;;;;;;31.29;35.32;99517.59;5087185;28;20043;-62
2022/07/09 07:02:36;;;;;;;4.00;2.70;;;;;;;32.16;34.23;99524.47;5088921;28;20032;-62
2022/07/09 07:05:02;;;;;;;5.68;1.70;;;;;;;31.55;35.08;99512.50;5089060;28;20044;-62
2022/07/09 07:07:29;;;;;;;4.38;2.25;;;;;;;30.57;36.35;99514.75;5071014;28;20044;-64
2022/07/09 07:09:55;;;;;;;2.03;1.75;;;;;;;29.62;37.94;99498.34;5087799;28;20369;-64
2022/07/09 07:12:21;;;;;;;6.53;2.45;;;;;;;28.96;39.60;99501.53;5088002;28;20040;-63
2022/07/09 07:14:46;;;;;;;3.25;2.08;;;;;;;28.39;39.61;99501.72;5086894;28;20050;-62
2022/07/09 07:17:12;;;;;;;2.95;2.08;;;;;;;27.74;39.86;99487.56;5088386;28;20175;-62
2022/07/09 07:19:39;;;;;;;4.18;2.25;;;;;;;28.13;39.62;99493.06;5088452;28;20077;-63
2022/07/09 07:22:05;;;;;;;6.38;2.28;;;;;;;28.23;39.87;99486.53;5088708;28;20544;-64
2022/07/09 07:24:30;;;;;;;5.07;2.38;;;;;;;28.61;39.52;99492.13;5050660;28;20048;-64
2022/07/09 07:26:57;;;;;;;5.68;2.50;;;;;;;28.83;38.96;99491.41;5086195;28;20036;-64
2022/07/09 07:29:24;;;;;;;2.60;2.13;;;;;;;28.79;38.66;99499.94;5088049;28;20047;-61
2022/07/09 07:31:49;;;;;;;3.53;2.10;;;;;;;28.60;39.08;99509.19;5088018;28;20047;-63
2022/07/09 07:34:15;;;;;;;3.53;2.85;;;;;;;28.41;39.55;99510.41;5088959;28;20043;-63
2022/07/09 07:36:41;;;;;;;3.67;2.30;;;;;;;28.34;39.79;99511.25;5087705;28;20074;-64
2022/07/09 07:39:08;;;;;;;4.40;2.53;;;;;;;28.21;40.06;99515.28;5070349;28;20036;-63
2022/07/09 07:41:34;;;;;;;5.30;2.08;;;;;;;27.95;40.71;99513.78;5089788;28;20047;-63
2022/07/09 07:43:59;;;;;;;6.13;2.30;;;;;;;27.69;41.05;99511.25;5089538;28;20040;-63
2022/07/09 07:46:25;;;;;;;4.40;1.83;;;;;;;27.40;42.07;99512.53;5088858;28;20040;-64
2022/07/09 07:48:51;;;;;;;4.18;2.53;;;;;;;27.09;42.96;99500.78;5098692;28;20044;-64
2022/07/09 07:51:17;;;;;;;4.57;2.42;;;;;;;26.98;43.14;99509.09;5096341;28;20051;-64
2022/07/09 07:53:42;;;;;;;5.07;2.50;;;;;;;26.77;43.53;99514.81;5084651;28;20540;-64
2022/07/09 07:56:08;;;;;;;5.10;1.98;;;;;;;26.36;43.10;99510.25;5089477;28;20035;-64
2022/07/09 07:58:35;;;;;;;3.42;2.20;;;;;;;26.03;43.58;99518.00;5090372;28;20048;-64
2022/07/09 08:01:02;;;;;;;3.90;2.20;;;;;;;25.78;44.05;99516.13;5088758;28;20097;-64
2022/07/09 08:03:28;;;;;;;4.95;2.17;;;;;;;25.63;44.14;99529.16;5093559;28;20032;-64
2022/07/09 08:05:54;;;;;;;2.65;2.20;;;;;;;25.37;44.70;99519.34;5093494;28;20054;-64
2022/07/09 08:08:20;;;;;;;3.17;2.28;;;;;;;25.31;45.37;99518.13;5092510;28;20508;-61
2022/07/09 08:10:48;;;;;;;12.30;2.47;;;;;;;25.16;45.60;99514.31;5093060;28;20560;-62
2022/07/09 08:13:14;;;;;;;3.72;2.70;;;;;;;25.13;45.63;99528.72;5074277;28;20050;-62
2022/07/09 08:15:41;;;;;;;4.03;2.15;;;;;;;25.05;46.64;99528.66;5092901;28;20093;-63
2022/07/09 08:18:08;;;;;;;13.32;3.28;;;;;;;24.87;47.58;99531.25;5092620;28;20036;-62
2022/07/09 08:20:36;;;;;;;2.28;2.08;;;;;;;24.45;48.20;99533.47;5092227;28;20529;-63
2022/07/09 08:23:02;;;;;;;4.85;2.72;;;;;;;24.33;49.71;99537.31;5073695;28;20056;-62
2022/07/09 08:25:28;;;;;;;5.43;2.88;;;;;;;24.11;51.07;99536.75;5073114;28;20089;-63
2022/07/09 08:27:54;;;;;;;8.85;4.78;;;;;;;24.00;51.12;99538.59;5072817;28;20520;-62
2022/07/09 08:30:19;;;;;;;2.90;2.40;;;;;;;23.89;51.09;99540.53;5094353;28;20507;-61
2022/07/09 08:32:45;;;;;;;5.40;2.47;;;;;;;23.94;51.48;99546.25;5088824;28;20090;-63
2022/07/09 08:35:11;;;;;;;3.97;2.78;;;;;;;23.90;51.83;99543.06;5090445;28;20443;-61
2022/07/09 08:37:37;;;;;;;5.38;3.00;;;;;;;23.83;52.93;99554.38;5092816;28;20048;-60
2022/07/09 08:40:06;;;;;;;6.95;2.78;;;;;;;23.66;53.94;99544.47;5091916;28;20130;-57
2022/07/09 08:42:33;;;;;;;102.72;25.15;;;;;;;23.44;54.85;99543.72;5092321;28;20105;-61
2022/07/09 08:44:59;;;;;;;13.73;4.55;;;;;;;23.40;55.16;99528.19;5091879;28;20119;-61
2022/07/09 08:47:25;;;;;;;4.97;3.03;;;;;;;23.44;55.43;99529.59;5094473;28;20119;-61
2022/07/09 08:49:55;;;;;;;6.63;3.42;;;;;;;23.29;55.86;99518.53;5102436;28;20035;-60
2022/07/09 08:52:21;;;;;;;5.00;3.20;;;;;;;23.31;56.03;99527.19;5101161;28;20431;-59
2022/07/09 08:54:47;;;;;;;5.70;3.38;;;;;;;23.32;56.20;99531.53;5100942;28;20046;-60
2022/07/09 08:57:14;;;;;;;8.38;3.53;;;;;;;23.33;56.11;99529.72;5101949;28;20051;-59
2022/07/09 08:59:39;;;;;;;4.97;3.33;;;;;;;23.30;55.97;99522.88;5094800;28;20126;-60
2022/07/09 09:02:06;;;;;;;4.68;3.08;;;;;;;23.15;55.89;99506.50;5087179;28;20482;-61
2022/07/09 09:04:34;;;;;;;4.32;2.90;;;;;;;23.16;56.04;99510.84;5092701;28;20040;-62
2022/07/09 09:07:21;;;;;;;5.93;3.20;;;;;;;23.21;56.38;99521.03;5091770;28;20036;-61
2022/07/09 09:09:47;;;;;;;9.82;3.83;;;;;;;23.12;56.68;99524.53;5075119;28;20032;-62
2022/07/09 09:12:14;;;;;;;4.50;3.50;;;;;;;23.03;57.34;99523.50;5094465;28;20519;-61
2022/07/09 09:14:48;;;;;;;6.32;3.50;;;;;;;22.88;58.44;99524.00;5095835;28;20047;-61
2022/07/09 09:17:14;;;;;;;5.10;3.50;;;;;;;22.58;59.34;99501.00;5089995;28;20043;-61
2022/07/09 09:19:40;;;;;;;7.57;3.72;;;;;;;22.69;60.08;99530.91;5087070;28;20043;-60
2022/07/09 09:22:06;;;;;;;7.07;4.50;;;;;;;22.67;60.04;99524.88;5089512;28;20051;-62
2022/07/09 09:24:34;;;;;;;7.35;5.05;;;;;;;22.71;60.03;99523.69;5090539;28;20064;-60
2022/07/09 09:27:00;;;;;;;6.68;4.38;;;;;;;22.79;60.11;99531.81;5090761;28;20180;-62
2022/07/09 09:29:27;;;;;;;9.00;4.20;;;;;;;22.89;60.25;99528.34;5090570;28;20040;-62
2022/07/09 09:31:54;;;;;;;6.70;4.13;;;;;;;22.83;60.63;99515.63;5090569;28;20044;-61
2022/07/09 09:34:20;;;;;;;5.07;4.10;;;;;;;22.83;60.79;99510.31;5091702;28;20031;-61
2022/07/09 09:36:48;;;;;;;7.80;4.90;;;;;;;22.88;61.09;99514.25;5090600;28;20055;-44
2022/07/09 09:39:24;;;;;;;6.35;4.53;;;;;;;22.83;61.12;99511.16;5091164;28;20040;-62
2022/07/09 09:42:01;;;;;;;6.07;4.07;;;;;;;22.81;60.98;99502.53;5091793;28;20483;-63
2022/07/09 09:44:37;;;;;;;6.50;4.10;;;;;;;22.82;60.62;99498.06;5091391;28;20198;-60
2022/07/09 09:47:04;;;;;;;8.02;4.38;;;;;;;22.99;60.13;99500.03;5056887;28;20040;-44
2022/07/09 09:49:30;;;;;;;5.85;4.18;;;;;;;23.18;59.77;99503.59;5073417;28;20135;-42
2022/07/09 09:52:02;;;;;;;5.75;4.35;;;;;;;23.32;58.82;99491.75;5095731;28;20050;-42
2022/07/09 09:54:28;;;;;;;8.18;4.25;;;;;;;23.48;58.67;99481.44;5076988;28;20048;-43
2022/07/09 09:56:54;;;;;;;6.60;3.85;;;;;;;23.75;58.47;99478.09;5090677;28;20048;-43
2022/07/09 09:59:20;;;;;;;6.88;4.32;;;;;;;24.01;58.35;99483.66;5090561;28;20508;-43
2022/07/09 10:01:47;;;;;;;6.65;4.60;;;;;;;24.10;58.36;99479.28;5072415;28;20085;-42
2022/07/09 10:04:15;;;;;;;6.82;4.20;;;;;;;24.24;58.28;99474.38;5090752;28;20036;-43
2022/07/09 10:06:41;;;;;;;11.53;4.70;;;;;;;24.38;58.29;99471.28;5089648;28;20511;-51
2022/07/09 10:09:07;;;;;;;7.82;5.07;;;;;;;24.55;58.72;99472.31;5089629;28;20804;-51
2022/07/09 10:11:40;;;;;;;9.75;5.40;;;;;;;24.66;58.51;99461.47;5058573;28;20094;-48
2022/07/09 10:14:08;;;;;;;8.45;5.28;;;;;;;24.79;58.46;99461.16;5083661;28;20067;-47
2022/07/09 10:16:38;;;;;;;6.72;4.97;;;;;;;24.94;58.07;99467.66;5090477;28;20091;-52
2022/07/09 10:19:05;;;;;;;6.68;4.40;;;;;;;25.05;57.54;99448.84;5090536;28;20135;-49
2022/07/09 10:21:39;;;;;;;7.32;4.32;;;;;;;25.47;56.18;99461.56;5071961;28;20062;-50
2022/07/09 10:24:06;;;;;;;6.13;4.60;;;;;;;25.72;56.11;99463.47;5090680;28;20066;-48
2022/07/09 10:26:42;;;;;;;7.05;4.45;;;;;;;25.80;56.05;99462.69;5089667;28;20043;-50
2022/07/09 10:29:27;;;;;;;7.97;4.80;;;;;;;25.80;55.74;99452.88;5090465;28;20074;-49
2022/07/09 10:31:54;;;;;;;7.88;4.90;;;;;;;25.77;54.72;99455.00;5067113;28;20035;-49
2022/07/09 10:34:45;;;;;;;10.65;4.85;;;;;;;25.72;55.15;99452.81;5089720;28;20134;-49
2022/07/09 10:37:11;;;;;;;8.07;5.15;;;;;;;25.64;55.04;99450.09;5036540;28;20040;-50
2022/07/09 10:39:37;;;;;;;6.97;4.95;;;;;;;25.56;55.10;99432.22;5070591;28;20044;-52
2022/07/09 10:42:18;;;;;;;6.75;4.88;;;;;;;25.80;54.24;99441.41;5071272;28;20077;-52
2022/07/09 10:44:45;;;;;;;9.82;5.45;;;;;;;26.12;52.74;99431.75;5089636;28;20044;-47
2022/07/09 10:47:12;;;;;;;6.38;4.60;;;;;;;26.59;50.81;99430.56;5090082;28;20040;-51
2022/07/09 10:49:38;;;;;;;7.57;4.40;;;;;;;27.17;48.54;99430.56;5090345;28;20039;-48
2022/07/09 10:52:05;;;;;;;6.05;4.18;;;;;;;27.87;46.69;99422.91;5089020;28;20092;-51
2022/07/09 10:54:31;;;;;;;9.30;4.80;;;;;;;28.85;45.02;99426.97;5071564;28;20043;-52
2022/07/09 10:56:58;;;;;;;10.25;5.10;;;;;;;30.26;42.47;99418.31;5089351;28;20043;-49
2022/07/09 10:59:25;;;;;;;4.88;4.38;;;;;;;31.56;39.67;99426.28;5072227;28;20453;-51
2022/07/09 11:01:52;;;;;;;6.85;4.40;;;;;;;32.22;38.46;99415.25;5089598;28;20043;-47
2022/07/09 11:04:25;;;;;;;7.60;4.50;;;;;;;31.91;38.91;99404.88;5089472;28;20035;-49
2022/07/09 11:06:51;;;;;;;4.97;4.43;;;;;;;31.13;39.80;99378.97;5071607;28;20040;-47
2022/07/09 11:09:16;;;;;;;6.18;4.05;;;;;;;30.63;40.67;99388.72;5089062;28;20130;-52
2022/07/09 11:11:43;;;;;;;4.57;3.75;;;;;;;30.53;40.03;99384.66;5089860;28;20040;-49
2022/07/09 11:14:10;;;;;;;6.70;5.47;;;;;;;31.28;38.04;99381.59;5090193;28;20036;-47
2022/07/09 11:16:36;;;;;;;5.25;3.50;;;;;;;32.17;36.76;99375.47;5088685;28;20055;-51
2022/07/09 11:19:21;;;;;;;6.95;3.40;;;;;;;31.79;36.76;99363.41;5089754;28;20044;-50
2022/07/09 11:21:48;;;;;;;3.83;2.95;;;;;;;31.15;37.42;99360.78;5071612;28;20143;-49
2022/07/09 11:24:19;;;;;;;4.53;2.92;;;;;;;30.40;37.84;99353.13;5055419;28;20043;-47
2022/07/09 11:26:48;;;;;;;3.75;2.42;;;;;;;29.73;38.46;99339.78;5089261;28;20097;-48